createdAt,value
2023-05-21T00:00:51.806Z,97460.25
2023-05-21T00:03:18.546Z,97467.59
2023-05-21T00:05:45.379Z,97462.59
2023-05-21T00:08:13.127Z,97461.56
2023-05-21T00:10:39.796Z,97467.59
2023-05-21T00:13:06.734Z,97467.25
2023-05-21T00:15:33.433Z,97456.59
2023-05-21T00:18:00.244Z,97455.75
2023-05-21T00:20:26.953Z,97449.56
2023-05-21T00:22:53.598Z,97454.16
2023-05-21T00:25:20.554Z,97453.69
2023-05-21T00:27:47.317Z,97450.81
2023-05-21T00:30:16.512Z,97449.91
2023-05-21T00:32:43.834Z,97451.16
2023-05-21T00:35:10.490Z,97449.09
2023-05-21T00:37:37.152Z,97445.50
2023-05-21T00:40:06.425Z,97441.91
2023-05-21T00:42:33.051Z,97443.31
2023-05-21T00:44:59.663Z,97442.13
2023-05-21T00:47:26.288Z,97440.53
2023-05-21T00:49:52.939Z,97432.66
2023-05-21T00:52:19.579Z,97439.81
2023-05-21T00:54:46.208Z,97435.53
2023-05-21T00:57:12.927Z,97436.94
2023-05-21T00:59:39.521Z,97424.69
2023-05-21T01:02:06.195Z,97438.00
2023-05-21T01:04:33.748Z,97432.53
2023-05-21T01:07:00.382Z,97436.47
2023-05-21T01:09:26.982Z,97430.00
2023-05-21T01:11:53.613Z,97435.78
2023-05-21T01:14:20.244Z,97434.84
2023-05-21T01:16:47.041Z,97435.66
2023-05-21T01:19:15.583Z,97432.31
2023-05-21T01:21:42.394Z,97423.97
2023-05-21T01:24:09.011Z,97419.91
2023-05-21T01:26:38.022Z,97416.44
2023-05-21T01:29:04.651Z,97418.31
2023-05-21T01:31:31.269Z,97422.81
2023-05-21T01:33:57.996Z,97419.91
2023-05-21T01:36:24.786Z,97411.72
2023-05-21T01:38:51.430Z,97413.69
2023-05-21T01:41:18.044Z,97409.75
2023-05-21T01:43:44.679Z,97414.84
2023-05-21T01:46:12.452Z,97416.09
2023-05-21T01:48:39.062Z,97409.03
2023-05-21T01:51:05.699Z,97406.06
2023-05-21T01:53:32.431Z,97410.13
2023-05-21T01:55:59.224Z,97399.22
2023-05-21T01:58:25.881Z,97397.84
2023-05-21T02:00:52.685Z,97399.00
2023-05-21T02:03:20.086Z,97397.72
2023-05-21T02:05:46.773Z,97404.53
2023-05-21T02:08:14.204Z,97395.44
2023-05-21T02:10:40.833Z,97393.09
2023-05-21T02:13:08.964Z,97396.22
2023-05-21T02:15:39.075Z,97382.22
2023-05-21T02:18:05.745Z,97390.78
2023-05-21T02:20:32.387Z,97393.00
2023-05-21T02:22:59.027Z,97388.94
2023-05-21T02:25:25.641Z,97395.31
2023-05-21T02:27:52.426Z,97402.63
2023-05-21T02:30:21.342Z,97399.56
2023-05-21T02:32:49.206Z,97396.38
2023-05-21T02:35:15.890Z,97404.91
2023-05-21T02:37:42.542Z,97403.63
2023-05-21T02:40:09.158Z,97401.91
2023-05-21T02:42:37.854Z,97402.81
2023-05-21T02:45:04.445Z,97399.59
2023-05-21T02:47:31.233Z,97401.31
2023-05-21T02:49:59.656Z,97398.66
2023-05-21T02:52:26.311Z,97396.59
2023-05-21T02:54:52.915Z,97391.50
2023-05-21T02:57:19.642Z,97398.56
2023-05-21T02:59:46.289Z,97393.25
2023-05-21T03:02:13.079Z,97396.28
2023-05-21T03:04:39.750Z,97398.47
2023-05-21T03:07:06.354Z,97390.59
2023-05-21T03:09:33.858Z,97398.06
2023-05-21T03:12:00.491Z,97396.59
2023-05-21T03:14:27.095Z,97389.19
2023-05-21T03:16:53.808Z,97394.84
2023-05-21T03:19:20.433Z,97390.28
2023-05-21T03:21:47.275Z,97384.84
2023-05-21T03:24:14.309Z,97381.38
2023-05-21T03:26:40.910Z,97376.78
2023-05-21T03:29:07.611Z,97381.16
2023-05-21T03:31:34.279Z,97379.78
2023-05-21T03:34:01.219Z,97375.13
2023-05-21T03:36:27.863Z,97384.84
2023-05-21T03:38:56.272Z,97390.28
2023-05-21T03:41:23.796Z,97383.13
2023-05-21T03:43:50.537Z,97386.47
2023-05-21T03:46:17.170Z,97385.69
2023-05-21T03:48:43.901Z,97384.09
2023-05-21T03:51:10.499Z,97373.84
2023-05-21T03:53:37.121Z,97391.63
2023-05-21T03:56:03.832Z,97383.38
2023-05-21T03:58:30.432Z,97385.59
2023-05-21T04:00:57.063Z,97387.34
2023-05-21T04:03:23.801Z,97393.63
2023-05-21T04:05:50.690Z,97397.69
2023-05-21T04:08:17.348Z,97396.13
2023-05-21T04:10:43.977Z,97406.28
2023-05-21T04:13:10.586Z,97402.16
2023-05-21T04:15:37.375Z,97410.09
2023-05-21T04:18:04.261Z,97406.63
2023-05-21T04:20:30.899Z,97408.38
2023-05-21T04:22:57.888Z,97405.38
2023-05-21T04:25:24.721Z,97404.56
2023-05-21T04:27:51.744Z,97409.28
2023-05-21T04:30:18.392Z,97414.53
2023-05-21T04:32:45.051Z,97418.31
2023-05-21T04:35:11.707Z,97425.13
2023-05-21T04:37:38.430Z,97432.59
2023-05-21T04:40:05.075Z,97434.13
2023-05-21T04:42:31.689Z,97433.66
2023-05-21T04:44:58.310Z,97422.28
2023-05-21T04:47:24.969Z,97425.31
2023-05-21T04:49:52.727Z,97428.84
2023-05-21T04:52:19.322Z,97436.53
2023-05-21T04:54:45.965Z,97433.06
2023-05-21T04:57:12.762Z,97437.59
2023-05-21T04:59:39.390Z,97437.91
2023-05-21T05:02:06.031Z,97432.69
2023-05-21T05:04:32.637Z,97442.38
2023-05-21T05:07:00.770Z,97441.66
2023-05-21T05:09:27.362Z,97438.75
2023-05-21T05:11:53.953Z,97443.56
2023-05-21T05:14:20.583Z,97442.41
2023-05-21T05:16:48.379Z,97440.25
2023-05-21T05:19:15.172Z,97440.88
2023-05-21T05:21:41.884Z,97443.84
2023-05-21T05:24:08.548Z,97446.41
2023-05-21T05:26:35.176Z,97451.28
2023-05-21T05:29:01.781Z,97443.75
2023-05-21T05:31:28.495Z,97442.28
2023-05-21T05:33:55.130Z,97444.88
2023-05-21T05:36:21.728Z,97444.63
2023-05-21T05:38:48.410Z,97441.31
2023-05-21T05:41:15.030Z,97452.63
2023-05-21T05:43:41.983Z,97457.19
2023-05-21T05:46:09.688Z,97461.41
2023-05-21T05:48:36.305Z,97460.38
2023-05-21T05:51:02.976Z,97459.06
2023-05-21T05:53:29.726Z,97457.53
2023-05-21T05:55:56.358Z,97453.31
2023-05-21T05:58:22.956Z,97462.41
2023-05-21T06:00:49.590Z,97463.38
2023-05-21T06:03:16.369Z,97465.00
2023-05-21T06:05:43.073Z,97452.22
2023-05-21T06:08:09.730Z,97454.34
2023-05-21T06:10:36.368Z,97457.06
2023-05-21T06:13:03.021Z,97451.41
2023-05-21T06:15:29.618Z,97447.97
2023-05-21T06:17:56.254Z,97454.41
2023-05-21T06:20:23.240Z,97450.09
2023-05-21T06:22:49.850Z,97452.25
2023-05-21T06:25:18.595Z,97451.66
2023-05-21T06:27:45.221Z,97453.81
2023-05-21T06:30:11.900Z,97453.22
2023-05-21T06:32:38.813Z,97453.44
2023-05-21T06:35:05.828Z,97449.31
2023-05-21T06:37:32.430Z,97451.94
2023-05-21T06:39:59.181Z,97448.13
2023-05-21T06:42:25.818Z,97451.06
2023-05-21T06:44:52.444Z,97445.78
2023-05-21T06:47:19.067Z,97450.03
2023-05-21T06:49:45.692Z,97445.50
2023-05-21T06:52:12.731Z,97447.59
2023-05-21T06:54:39.405Z,97452.22
2023-05-21T06:57:06.512Z,97450.09
2023-05-21T06:59:33.219Z,97452.78
2023-05-21T07:02:00.165Z,97451.69
2023-05-21T07:04:27.652Z,97454.94
2023-05-21T07:06:54.255Z,97444.72
2023-05-21T07:09:20.889Z,97455.94
2023-05-21T07:11:47.491Z,97455.16
2023-05-21T07:14:14.126Z,97452.22
2023-05-21T07:16:41.879Z,97447.94
2023-05-21T07:19:08.775Z,97450.63
2023-05-21T07:21:35.652Z,97447.97
2023-05-21T07:24:02.298Z,97449.03
2023-05-21T07:26:30.117Z,97454.34
2023-05-21T07:28:56.723Z,97443.59
2023-05-21T07:31:23.368Z,97445.44
2023-05-21T07:33:50.201Z,97452.78
2023-05-21T07:36:16.890Z,97446.34
2023-05-21T07:38:45.504Z,97448.97
2023-05-21T07:41:12.130Z,97451.03
2023-05-21T07:43:38.760Z,97453.59
2023-05-21T07:46:05.469Z,97453.91
2023-05-21T07:48:34.719Z,97457.75
2023-05-21T07:51:02.083Z,97446.50
2023-05-21T07:53:30.945Z,97444.38
2023-05-21T07:55:57.566Z,97442.22
2023-05-21T07:58:24.205Z,97440.50
2023-05-21T08:00:50.811Z,97435.41
2023-05-21T08:03:17.666Z,97442.94
2023-05-21T08:05:44.337Z,97434.56
2023-05-21T08:08:10.981Z,97436.47
2023-05-21T08:10:37.618Z,97431.31
2023-05-21T08:13:04.236Z,97440.72
2023-05-21T08:15:30.865Z,97448.13
2023-05-21T08:17:57.623Z,97441.97
2023-05-21T08:20:24.308Z,97437.06
2023-05-21T08:22:52.339Z,97440.09
2023-05-21T08:25:19.020Z,97442.28
2023-05-21T08:27:45.665Z,97444.78
2023-05-21T08:30:12.366Z,97445.94
2023-05-21T08:32:39.020Z,97445.41
2023-05-21T08:35:06.378Z,97440.84
2023-05-21T08:37:33.018Z,97448.81
2023-05-21T08:39:59.640Z,97431.63
2023-05-21T08:42:36.197Z,97442.31
2023-05-21T08:45:04.668Z,97435.47
2023-05-21T08:47:31.377Z,97438.69
2023-05-21T08:49:58.006Z,97436.59
2023-05-21T08:52:24.629Z,97443.31
2023-05-21T08:54:51.740Z,97450.00
2023-05-21T08:57:18.388Z,97441.63
2023-05-21T08:59:45.360Z,97445.13
2023-05-21T09:02:12.055Z,97441.66
2023-05-21T09:04:38.857Z,97449.81
2023-05-21T09:07:05.834Z,97447.28
2023-05-21T09:09:32.437Z,97433.31
2023-05-21T09:11:59.061Z,97446.38
2023-05-21T09:14:25.675Z,97440.19
2023-05-21T09:16:52.363Z,97443.22
2023-05-21T09:19:19.277Z,97433.50
2023-05-21T09:21:45.910Z,97446.88
2023-05-21T09:24:12.664Z,97439.03
2023-05-21T09:26:39.364Z,97441.44
2023-05-21T09:29:05.999Z,97430.75
2023-05-21T09:31:33.173Z,97432.69
2023-05-21T09:33:59.871Z,97443.19
2023-05-21T09:36:26.516Z,97435.25
2023-05-21T09:38:53.728Z,97438.16
2023-05-21T09:41:22.203Z,97433.41
2023-05-21T09:43:49.302Z,97434.94
2023-05-21T09:46:15.999Z,97431.44
2023-05-21T09:48:42.832Z,97431.81
2023-05-21T09:51:09.452Z,97424.75
2023-05-21T09:53:36.131Z,97431.75
2023-05-21T09:56:02.815Z,97438.25
2023-05-21T09:58:29.448Z,97433.22
2023-05-21T10:00:56.149Z,97430.88
2023-05-21T10:03:22.807Z,97431.22
2023-05-21T10:05:51.834Z,97433.81
2023-05-21T10:08:18.487Z,97432.66
2023-05-21T10:10:45.105Z,97423.66
2023-05-21T10:13:11.944Z,97420.75
2023-05-21T10:15:38.853Z,97426.94
2023-05-21T10:18:06.577Z,97425.25
2023-05-21T10:20:33.370Z,97427.59
2023-05-21T10:23:00.005Z,97419.50
2023-05-21T10:25:26.644Z,97411.25
2023-05-21T10:27:53.267Z,97417.50
2023-05-21T10:30:19.894Z,97407.84
2023-05-21T10:32:46.732Z,97408.47
2023-05-21T10:35:13.479Z,97414.09
2023-05-21T10:37:40.106Z,97409.19
2023-05-21T10:40:06.720Z,97402.91
2023-05-21T10:42:33.362Z,97404.72
2023-05-21T10:45:00.096Z,97416.34
2023-05-21T10:47:26.880Z,97421.03
2023-05-21T10:49:53.675Z,97407.94
2023-05-21T10:52:20.281Z,97414.25
2023-05-21T10:54:46.939Z,97410.38
2023-05-21T10:57:17.352Z,97414.00
2023-05-21T10:59:44.905Z,97404.97
2023-05-21T11:02:12.591Z,97404.31
2023-05-21T11:04:39.277Z,97402.72
2023-05-21T11:07:05.890Z,97405.06
2023-05-21T11:09:32.523Z,97401.22
2023-05-21T11:11:59.157Z,97398.88
2023-05-21T11:14:25.842Z,97395.81
2023-05-21T11:16:52.751Z,97397.06
2023-05-21T11:19:19.467Z,97385.50
2023-05-21T11:21:46.139Z,97390.19
2023-05-21T11:24:12.742Z,97384.91
2023-05-21T11:26:39.383Z,97383.38
2023-05-21T11:29:06.255Z,97388.38
2023-05-21T11:31:33.264Z,97382.38
2023-05-21T11:33:59.907Z,97387.84
2023-05-21T11:36:26.498Z,97388.47
2023-05-21T11:38:53.154Z,97386.84
2023-05-21T11:41:19.767Z,97374.91
2023-05-21T11:43:46.429Z,97383.94
2023-05-21T11:46:13.199Z,97381.28
2023-05-21T11:48:39.855Z,97378.56
2023-05-21T11:51:06.450Z,97383.63
2023-05-21T11:53:33.088Z,97385.66
2023-05-21T11:55:59.708Z,97377.94
2023-05-21T11:58:26.341Z,97372.28
2023-05-21T12:00:52.977Z,97377.00
2023-05-21T12:03:19.686Z,97377.44
2023-05-21T12:05:46.533Z,97370.13
2023-05-21T12:08:13.230Z,97374.25
2023-05-21T12:10:39.866Z,97369.06
2023-05-21T12:13:06.466Z,97367.59
2023-05-21T12:15:33.096Z,97358.00
2023-05-21T12:17:59.814Z,97371.94
2023-05-21T12:20:26.515Z,97359.22
2023-05-21T12:22:53.138Z,97371.03
2023-05-21T12:25:19.773Z,97369.03
2023-05-21T12:27:46.421Z,97370.34
2023-05-21T12:30:13.083Z,97363.22
2023-05-21T12:32:39.690Z,97356.88
2023-05-21T12:35:06.401Z,97365.06
2023-05-21T12:37:33.806Z,97349.81
2023-05-21T12:40:00.961Z,97350.16
2023-05-21T12:42:27.609Z,97346.44
2023-05-21T12:44:54.250Z,97348.09
2023-05-21T12:47:20.910Z,97350.34
2023-05-21T12:49:47.543Z,97335.78
2023-05-21T12:52:14.486Z,97345.13
2023-05-21T12:54:41.113Z,97338.91
2023-05-21T12:57:07.743Z,97330.91
2023-05-21T12:59:34.389Z,97335.94
2023-05-21T13:02:01.064Z,97328.28
2023-05-21T13:04:27.714Z,97327.25
2023-05-21T13:06:54.363Z,97318.38
2023-05-21T13:09:21.015Z,97316.88
2023-05-21T13:11:47.611Z,97309.16
2023-05-21T13:14:14.255Z,97307.19
2023-05-21T13:16:40.957Z,97309.47
2023-05-21T13:19:07.936Z,97305.00
2023-05-21T13:21:34.548Z,97309.19
2023-05-21T13:24:01.216Z,97301.75
2023-05-21T13:26:27.951Z,97300.91
2023-05-21T13:28:55.804Z,97301.03
2023-05-21T13:31:30.278Z,97308.66
2023-05-21T13:33:57.223Z,97288.97
2023-05-21T13:36:24.123Z,97280.72
2023-05-21T13:38:50.756Z,97289.31
2023-05-21T13:41:17.373Z,97278.41
2023-05-21T13:43:43.985Z,97274.38
2023-05-21T13:46:10.640Z,97279.75
2023-05-21T13:48:37.271Z,97277.22
2023-05-21T13:51:04.123Z,97272.72
2023-05-21T13:53:30.769Z,97274.47
2023-05-21T13:55:57.389Z,97275.78
2023-05-21T13:58:24.036Z,97280.09
2023-05-21T14:00:50.698Z,97272.38
2023-05-21T14:03:17.364Z,97274.97
2023-05-21T14:05:44.012Z,97268.41
2023-05-21T14:08:11.070Z,97267.84
2023-05-21T14:10:38.060Z,97268.38
2023-05-21T14:13:18.376Z,97277.34
2023-05-21T14:15:46.883Z,97267.72
2023-05-21T14:18:13.528Z,97267.38
2023-05-21T14:20:41.619Z,97264.56
2023-05-21T14:23:08.231Z,97259.63
2023-05-21T14:25:35.082Z,97259.03
2023-05-21T14:28:02.010Z,97249.53
2023-05-21T14:30:28.631Z,97252.69
2023-05-21T14:32:57.798Z,97245.19
2023-05-21T14:35:24.625Z,97249.66
2023-05-21T14:37:51.764Z,97244.06
2023-05-21T14:40:18.562Z,97249.28
2023-05-21T14:42:45.560Z,97247.97
2023-05-21T14:45:19.108Z,97246.38
2023-05-21T14:47:46.187Z,97242.22
2023-05-21T14:50:12.861Z,97244.81
2023-05-21T14:52:39.511Z,97246.41
2023-05-21T14:55:06.109Z,97244.47
2023-05-21T14:57:32.748Z,97242.59
2023-05-21T14:59:59.352Z,97242.16
2023-05-21T15:02:26.064Z,97230.50
2023-05-21T15:04:52.857Z,97235.38
2023-05-21T15:07:19.597Z,97240.47
2023-05-21T15:09:46.618Z,97243.38
2023-05-21T15:12:13.626Z,97230.44
2023-05-21T15:14:40.254Z,97231.16
2023-05-21T15:17:06.862Z,97230.84
2023-05-21T15:19:33.647Z,97235.84
2023-05-21T15:22:01.148Z,97234.72
2023-05-21T15:24:27.772Z,97227.22
2023-05-21T15:26:54.402Z,97227.75
2023-05-21T15:29:21.055Z,97227.00
2023-05-21T15:31:49.274Z,97222.66
2023-05-21T15:34:15.905Z,97226.78
2023-05-21T15:36:42.553Z,97229.59
2023-05-21T15:39:09.171Z,97239.97
2023-05-21T15:41:35.779Z,97234.34
2023-05-21T15:44:02.558Z,97237.88
2023-05-21T15:46:29.202Z,97237.81
2023-05-21T15:48:55.842Z,97227.44
2023-05-21T15:51:22.476Z,97239.97
2023-05-21T15:53:49.131Z,97243.66
2023-05-21T15:56:16.479Z,97246.50
2023-05-21T15:58:43.187Z,97244.00
2023-05-21T16:01:09.870Z,97239.75
2023-05-21T16:03:36.559Z,97244.31
2023-05-21T16:06:03.190Z,97249.50
2023-05-21T16:08:29.813Z,97243.66
2023-05-21T16:10:56.589Z,97244.72
2023-05-21T16:13:23.217Z,97251.75
2023-05-21T16:15:49.852Z,97258.91
2023-05-21T16:18:16.826Z,97253.13
2023-05-21T16:20:43.488Z,97257.34
2023-05-21T16:23:10.091Z,97255.84
2023-05-21T16:25:37.111Z,97251.53
2023-05-21T16:28:04.072Z,97252.06
2023-05-21T16:30:30.698Z,97262.94
2023-05-21T16:32:57.380Z,97256.16
2023-05-21T16:35:26.574Z,97252.63
2023-05-21T16:37:53.219Z,97256.31
2023-05-21T16:40:19.878Z,97248.41
2023-05-21T16:42:46.500Z,97251.59
2023-05-21T16:45:13.143Z,97256.22
2023-05-21T16:47:40.121Z,97248.13
2023-05-21T16:50:06.810Z,97246.50
2023-05-21T16:52:33.466Z,97245.56
2023-05-21T16:55:00.078Z,97247.59
2023-05-21T16:57:27.861Z,97254.03
2023-05-21T16:59:54.549Z,97250.38
2023-05-21T17:02:21.245Z,97254.69
2023-05-21T17:04:47.931Z,97256.66
2023-05-21T17:07:14.576Z,97248.06
2023-05-21T17:09:41.190Z,97253.97
2023-05-21T17:12:07.801Z,97258.13
2023-05-21T17:14:35.781Z,97254.19
2023-05-21T17:17:03.357Z,97257.56
2023-05-21T17:19:30.147Z,97266.69
2023-05-21T17:21:56.870Z,97266.66
2023-05-21T17:24:23.500Z,97267.91
2023-05-21T17:26:50.144Z,97264.94
2023-05-21T17:29:16.792Z,97266.84
2023-05-21T17:31:43.547Z,97266.66
2023-05-21T17:34:10.570Z,97267.16
2023-05-21T17:36:37.168Z,97265.94
2023-05-21T17:39:06.134Z,97270.13
2023-05-21T17:41:36.058Z,97274.50
2023-05-21T17:44:02.733Z,97276.38
2023-05-21T17:46:29.406Z,97282.72
2023-05-21T17:48:56.081Z,97277.81
2023-05-21T17:51:22.773Z,97281.69
2023-05-21T17:53:49.464Z,97287.38
2023-05-21T17:56:16.091Z,97285.19
2023-05-21T17:58:43.883Z,97293.78
2023-05-21T18:01:10.503Z,97283.78
2023-05-21T18:03:37.209Z,97293.03
2023-05-21T18:06:03.846Z,97292.63
2023-05-21T18:08:31.836Z,97288.41
2023-05-21T18:10:58.450Z,97296.16
2023-05-21T18:13:25.095Z,97302.97
2023-05-21T18:15:52.104Z,97313.41
2023-05-21T18:18:21.465Z,97312.06
2023-05-21T18:20:48.351Z,97305.75
2023-05-21T18:23:14.959Z,97309.22
2023-05-21T18:25:41.602Z,97299.31
2023-05-21T18:28:08.246Z,97314.63
2023-05-21T18:30:35.179Z,97306.38
2023-05-21T18:33:02.123Z,97310.31
2023-05-21T18:35:28.825Z,97319.28
2023-05-21T18:37:55.542Z,97310.72
2023-05-21T18:40:22.203Z,97309.16
2023-05-21T18:42:48.811Z,97313.31
2023-05-21T18:45:15.460Z,97308.56
2023-05-21T18:47:43.177Z,97318.84
2023-05-21T18:50:09.890Z,97318.59
2023-05-21T18:52:36.497Z,97319.47
2023-05-21T18:55:03.120Z,97326.41
2023-05-21T18:57:29.716Z,97324.84
2023-05-21T18:59:57.043Z,97332.03
2023-05-21T19:02:25.057Z,97335.84
2023-05-21T19:04:51.720Z,97339.75
2023-05-21T19:07:18.379Z,97336.31
2023-05-21T19:09:45.073Z,97337.38
2023-05-21T19:12:11.871Z,97343.25
2023-05-21T19:14:38.522Z,97345.41
2023-05-21T19:17:05.179Z,97346.50
2023-05-21T19:19:31.915Z,97353.78
2023-05-21T19:21:58.626Z,97358.31
2023-05-21T19:24:25.239Z,97360.50
2023-05-21T19:26:51.896Z,97376.03
2023-05-21T19:29:18.558Z,97374.09
2023-05-21T19:31:45.313Z,97375.69
2023-05-21T19:34:11.985Z,97392.06
2023-05-21T19:36:52.115Z,97393.09
2023-05-21T19:39:19.897Z,97389.03
2023-05-21T19:41:46.630Z,97389.19
2023-05-21T19:44:13.270Z,97388.94
2023-05-21T19:46:39.896Z,97398.09
2023-05-21T19:49:06.536Z,97397.28
2023-05-21T19:51:35.461Z,97405.25
2023-05-21T19:54:02.121Z,97396.94
2023-05-21T19:56:28.745Z,97398.75
2023-05-21T19:58:55.349Z,97412.09
2023-05-21T20:01:22.071Z,97399.41
2023-05-21T20:03:48.755Z,97409.97
2023-05-21T20:06:15.460Z,97398.44
2023-05-21T20:08:42.156Z,97403.75
2023-05-21T20:11:08.902Z,97400.75
2023-05-21T20:13:35.495Z,97402.81
2023-05-21T20:16:02.133Z,97403.91
2023-05-21T20:18:29.081Z,97397.78
2023-05-21T20:20:55.725Z,97391.25
2023-05-21T20:23:22.349Z,97389.44
2023-05-21T20:25:48.987Z,97387.06
2023-05-21T20:28:15.612Z,97391.34
2023-05-21T20:30:42.284Z,97397.81
2023-05-21T20:33:08.935Z,97388.34
2023-05-21T20:38:02.382Z,97384.94
2023-05-21T20:40:29.027Z,97387.34
2023-05-21T20:42:55.619Z,97384.41
2023-05-21T20:45:22.642Z,97391.47
2023-05-21T20:47:49.299Z,97383.69
2023-05-21T20:50:16.139Z,97381.25
2023-05-21T20:52:44.496Z,97382.56
2023-05-21T20:55:12.992Z,97380.72
2023-05-21T20:57:39.586Z,97386.75
2023-05-21T21:00:06.209Z,97389.44
2023-05-21T21:02:32.922Z,97379.03
2023-05-21T21:04:59.598Z,97382.22
2023-05-21T21:07:26.258Z,97389.75
2023-05-21T21:09:53.192Z,97377.88
2023-05-21T21:12:25.207Z,97381.56
2023-05-21T21:14:52.939Z,97389.06
2023-05-21T21:17:19.626Z,97389.31
2023-05-21T21:19:46.316Z,97384.97
2023-05-21T21:22:13.169Z,97388.88
2023-05-21T21:24:39.793Z,97390.09
2023-05-21T21:27:07.664Z,97386.44
2023-05-21T21:29:34.289Z,97393.22
2023-05-21T21:32:00.878Z,97393.53
2023-05-21T21:34:27.516Z,97387.75
2023-05-21T21:39:38.730Z,97392.19
2023-05-21T21:42:05.364Z,97392.94
2023-05-21T21:44:32.000Z,97389.88
2023-05-21T21:46:59.424Z,97381.88
2023-05-21T21:49:26.617Z,97384.03
2023-05-21T21:51:53.545Z,97388.56
2023-05-21T21:54:20.221Z,97384.19
2023-05-21T21:56:47.237Z,97385.66
2023-05-21T21:59:13.873Z,97384.34
2023-05-21T22:01:40.787Z,97382.44
2023-05-21T22:04:07.503Z,97388.16
2023-05-21T22:06:34.633Z,97386.38
2023-05-21T22:09:01.406Z,97390.09
2023-05-21T22:11:28.069Z,97397.69
2023-05-21T22:13:54.693Z,97391.16
2023-05-21T22:16:21.637Z,97390.38
2023-05-21T22:18:48.263Z,97387.31
2023-05-21T22:21:14.898Z,97383.84
2023-05-21T22:23:41.519Z,97390.09
2023-05-21T22:26:08.158Z,97397.31
2023-05-21T22:28:34.822Z,97393.63
2023-05-21T22:31:01.956Z,97387.16
2023-05-21T22:33:28.635Z,97384.44
2023-05-21T22:35:55.412Z,97382.78
2023-05-21T22:38:22.081Z,97390.09
2023-05-21T22:40:48.700Z,97389.31
2023-05-21T22:43:15.354Z,97388.38
2023-05-21T22:45:41.997Z,97390.00
2023-05-21T22:48:08.667Z,97391.06
2023-05-21T22:50:35.343Z,97391.16
2023-05-21T22:53:01.999Z,97388.69
2023-05-21T22:55:28.637Z,97379.72
2023-05-21T22:57:55.282Z,97382.66
2023-05-21T23:00:21.951Z,97381.84
2023-05-21T23:02:49.151Z,97380.47
2023-05-21T23:05:16.451Z,97374.34
2023-05-21T23:07:43.125Z,97375.38
2023-05-21T23:10:09.752Z,97374.25
2023-05-21T23:12:36.367Z,97381.28
2023-05-21T23:15:02.994Z,97384.13
2023-05-21T23:17:29.640Z,97373.50
2023-05-21T23:19:56.314Z,97375.00
2023-05-21T23:22:23.899Z,97373.69
2023-05-21T23:24:51.340Z,97369.03
2023-05-21T23:27:18.078Z,97370.13
2023-05-21T23:29:46.749Z,97364.88
2023-05-21T23:32:13.510Z,97358.00
2023-05-21T23:34:40.159Z,97357.91
2023-05-21T23:37:06.780Z,97353.63
2023-05-21T23:39:33.403Z,97361.44
2023-05-21T23:42:00.137Z,97351.91
2023-05-21T23:44:26.840Z,97356.44
2023-05-21T23:46:53.475Z,97359.66
2023-05-21T23:49:20.289Z,97357.59
2023-05-21T23:51:46.894Z,97351.41
2023-05-21T23:54:13.517Z,97346.34
2023-05-21T23:56:40.300Z,97354.66
2023-05-21T23:59:06.922Z,97346.84
